Brownell, Kansas
Current Conditions -  °F | °C
As of 2:55 AM on Wednesday 26 Nov 2014 (Local Time) from KHYS Reporting Station
Scattered Clouds Scattered Clouds  
Wind Chill: 39°   Ceiling: Unl
Heat Index: 45°   Visibility: 10mi
Dew Point: 27°   Wind: 10mph
Humidity: 49%   Direction: 310°NW
Pressure: 30.03"   Gusts: NA
Location:  38.64°N, 99.75°W
Report Text: KHYS 260855Z AUTO 31009KT 10SM SCT120 07/M03 A3003 RMK AO1 52027
Loading
Personal Weather Stations






























Interactive Weather Map New forecast layout! Learn more

10-Day Weather Forecast

Advertisements
Track Severe Weather on mobile